Time;durP1;ratioP1;P1;durP2;ratioP2;P2;SDS_P1;SDS_P2;PMS_P1;PMS_P2;Temp;Humidity;BMP_temperature;BMP_pressure;BME280_temperature;BME280_humidity;BME280_pressure;Samples;Min_cycle;Max_cycle;Signal;HPM_P1;HPM_P2
2022/06/15 00:00:19;;;;;;;5.55;4.70;;;;;;;;;;2074590;28;20209;-57
2022/06/15 00:01:20;;;;;;;6.28;4.97;;;;;;;;;;2073312;28;20539;-58
2022/06/15 00:02:21;;;;;;;6.15;4.35;;;;;;;;;;2073902;28;20177;-59
2022/06/15 00:03:21;;;;;;;9.52;5.15;;;;;;;;;;2074337;28;20263;-55
2022/06/15 00:04:21;;;;;;;6.68;4.82;;;;;;;;;;2073578;28;20966;-58
2022/06/15 00:05:22;;;;;;;5.93;4.53;;;;;;;;;;2074431;28;20170;-58
2022/06/15 00:06:23;;;;;;;6.60;5.28;;;;;;;;;;2074896;28;20168;-58
2022/06/15 00:07:24;;;;;;;5.35;4.25;;;;;;;;;;2075343;28;20180;-57
2022/06/15 00:08:24;;;;;;;5.13;4.72;;;;;;;;;;2076468;28;20231;-51
2022/06/15 00:09:24;;;;;;;7.45;4.65;;;;;;;;;;2076677;28;20161;-54
2022/06/15 00:10:25;;;;;;;5.68;4.40;;;;;;;;;;2073459;28;20268;-54
2022/06/15 00:11:26;;;;;;;6.15;4.65;;;;;;;;;;2068542;28;20178;-52
2022/06/15 00:12:27;;;;;;;8.07;5.15;;;;;;;;;;2071209;28;20212;-51
2022/06/15 00:13:29;;;;;;;6.00;4.75;;;;;;;;;;2075094;28;20165;-54
2022/06/15 00:14:29;;;;;;;6.25;4.45;;;;;;;;;;2074372;28;20165;-53
2022/06/15 00:15:30;;;;;;;7.20;4.13;;;;;;;;;;2075710;28;20181;-51
2022/06/15 00:16:30;;;;;;;5.05;4.63;;;;;;;;;;2075516;28;20189;-56
2022/06/15 00:17:31;;;;;;;6.03;4.50;;;;;;;;;;2075578;28;20169;-54
2022/06/15 00:18:32;;;;;;;7.72;5.00;;;;;;;;;;2075395;28;20193;-52
2022/06/15 00:19:32;;;;;;;6.10;4.60;;;;;;;;;;2075684;28;20181;-57
2022/06/15 00:20:32;;;;;;;4.72;4.43;;;;;;;;;;2075453;28;20280;-54
2022/06/15 00:21:33;;;;;;;7.03;4.88;;;;;;;;;;2074956;28;20177;-52
2022/06/15 00:22:33;;;;;;;8.70;4.90;;;;;;;;;;2074359;28;20169;-56
2022/06/15 00:23:34;;;;;;;8.57;4.97;;;;;;;;;;2075286;28;20169;-56
2022/06/15 00:24:35;;;;;;;5.30;4.78;;;;;;;;;;2074484;28;20180;-57
2022/06/15 00:25:36;;;;;;;5.03;4.10;;;;;;;;;;2074968;28;20209;-53
2022/06/15 00:26:36;;;;;;;9.35;4.90;;;;;;;;;;2074780;28;20654;-57
2022/06/15 00:27:37;;;;;;;4.85;4.40;;;;;;;;;;2075097;28;20261;-59
2022/06/15 00:28:37;;;;;;;7.68;4.97;;;;;;;;;;2075122;28;20205;-58
2022/06/15 00:29:38;;;;;;;8.13;5.93;;;;;;;;;;2074814;28;20189;-53
2022/06/15 00:30:38;;;;;;;6.07;4.50;;;;;;;;;;2076145;28;20177;-55
2022/06/15 00:31:39;;;;;;;6.05;4.60;;;;;;;;;;2076420;28;20192;-54
2022/06/15 00:32:39;;;;;;;5.57;4.60;;;;;;;;;;2075314;28;20204;-57
2022/06/15 00:33:39;;;;;;;5.22;4.75;;;;;;;;;;2076154;28;20177;-56
2022/06/15 00:34:40;;;;;;;8.55;4.70;;;;;;;;;;2075486;28;20303;-55
2022/06/15 00:35:40;;;;;;;8.07;4.53;;;;;;;;;;2076686;28;20259;-55
2022/06/15 00:36:40;;;;;;;5.15;4.65;;;;;;;;;;2075924;28;20268;-53
2022/06/15 00:37:41;;;;;;;7.15;5.05;;;;;;;;;;2075604;28;20201;-57
2022/06/15 00:38:43;;;;;;;8.30;5.18;;;;;;;;;;2067453;28;20205;-57
2022/06/15 00:39:44;;;;;;;6.25;4.40;;;;;;;;;;2067019;28;20484;-55
2022/06/15 00:40:44;;;;;;;6.43;4.78;;;;;;;;;;2075253;28;20201;-54
2022/06/15 00:41:44;;;;;;;6.20;5.07;;;;;;;;;;2075408;28;20166;-56
2022/06/15 00:42:45;;;;;;;7.43;4.68;;;;;;;;;;2067098;28;20185;-52
2022/06/15 00:43:47;;;;;;;6.80;5.38;;;;;;;;;;2066825;28;20177;-56
2022/06/15 00:44:49;;;;;;;6.05;4.80;;;;;;;;;;2067036;28;20200;-53
2022/06/15 00:45:50;;;;;;;5.47;4.93;;;;;;;;;;2074506;28;20271;-55
2022/06/15 00:46:52;;;;;;;7.38;4.80;;;;;;;;;;2073914;28;20546;-56
2022/06/15 00:47:52;;;;;;;6.28;5.07;;;;;;;;;;2074180;28;20547;-56
2022/06/15 00:48:56;;;;;;;6.40;5.35;;;;;;;;;;2073519;28;20308;-54
2022/06/15 00:50:00;;;;;;;6.13;5.50;;;;;;;;;;2069840;28;20217;-58
2022/06/15 00:51:00;;;;;;;6.55;4.95;;;;;;;;;;2074033;28;20196;-56
2022/06/15 00:52:18;;;;;;;6.38;5.32;;;;;;;;;;2073901;28;20188;-56
2022/06/15 00:53:18;;;;;;;7.97;4.70;;;;;;;;;;2073999;28;20181;-58
2022/06/15 00:54:19;;;;;;;7.85;4.53;;;;;;;;;;2064920;28;20223;-59
2022/06/15 00:55:22;;;;;;;6.88;4.40;;;;;;;;;;2074269;28;20173;-57
2022/06/15 00:56:24;;;;;;;6.20;4.95;;;;;;;;;;2074431;28;20173;-57
2022/06/15 00:57:25;;;;;;;5.82;4.88;;;;;;;;;;2074239;28;20164;-56
2022/06/15 00:58:25;;;;;;;6.35;5.00;;;;;;;;;;2074030;28;20251;-54
2022/06/15 00:59:29;;;;;;;5.68;4.70;;;;;;;;;;2073564;28;20169;-58
2022/06/15 01:00:30;;;;;;;7.43;4.70;;;;;;;;;;2074221;28;20196;-55
2022/06/15 01:01:30;;;;;;;6.75;4.70;;;;;;;;;;2073434;28;20268;-54
2022/06/15 01:02:34;;;;;;;4.75;4.35;;;;;;;;;;2074961;28;20180;-55
2022/06/15 01:03:35;;;;;;;9.30;4.40;;;;;;;;;;2075228;28;20173;-54
2022/06/15 01:04:58;;;;;;;7.30;4.82;;;;;;;;;;2073987;28;20192;-58
2022/06/15 01:05:59;;;;;;;7.35;4.60;;;;;;;;;;2070048;28;20256;-56
2022/06/15 01:07:08;;;;;;;4.22;3.80;;;;;;;;;;2074504;28;20215;-52
2022/06/15 01:08:15;;;;;;;7.30;4.43;;;;;;;;;;2074684;28;20196;-55
2022/06/15 01:09:23;;;;;;;6.05;4.32;;;;;;;;;;2075162;28;20181;-58
2022/06/15 01:10:33;;;;;;;5.13;4.60;;;;;;;;;;2071976;28;20166;-57
2022/06/15 01:11:36;;;;;;;6.45;4.72;;;;;;;;;;2067174;28;20249;-58
2022/06/15 01:12:52;;;;;;;6.38;4.38;;;;;;;;;;2067535;28;20173;-55
2022/06/15 01:13:59;;;;;;;5.93;5.22;;;;;;;;;;2059937;28;20281;-52
2022/06/15 01:15:06;;;;;;;6.35;4.57;;;;;;;;;;2067316;28;20569;-56
2022/06/15 01:16:06;;;;;;;6.28;5.13;;;;;;;;;;2074275;28;20161;-57
2022/06/15 01:17:13;;;;;;;6.10;4.50;;;;;;;;;;2068112;28;20182;-58
2022/06/15 01:18:25;;;;;;;5.63;4.95;;;;;;;;;;2073096;28;20215;-56
2022/06/15 01:19:25;;;;;;;4.72;4.30;;;;;;;;;;2075228;28;20686;-57
2022/06/15 01:20:31;;;;;;;5.43;4.93;;;;;;;;;;2072817;28;20224;-55
2022/06/15 01:21:38;;;;;;;6.30;4.60;;;;;;;;;;2067093;28;20165;-56
2022/06/15 01:22:53;;;;;;;9.05;4.72;;;;;;;;;;2067338;28;20623;-55
2022/06/15 01:24:14;;;;;;;5.47;4.68;;;;;;;;;;2066702;28;20176;-56
2022/06/15 01:25:25;;;;;;;5.60;4.85;;;;;;;;;;2076520;28;20192;-59
2022/06/15 01:26:29;;;;;;;6.72;4.18;;;;;;;;;;2075871;28;20167;-56
2022/06/15 01:27:48;;;;;;;4.75;3.92;;;;;;;;;;2075809;28;20165;-60
2022/06/15 01:28:52;;;;;;;6.25;4.15;;;;;;;;;;2074996;28;20205;-58
2022/06/15 01:30:01;;;;;;;6.55;4.60;;;;;;;;;;2076983;28;20164;-56
2022/06/15 01:31:10;;;;;;;5.63;4.57;;;;;;;;;;2074477;28;20165;-57
2022/06/15 01:32:17;;;;;;;5.63;4.45;;;;;;;;;;2076809;28;20192;-57
2022/06/15 01:33:18;;;;;;;4.50;4.10;;;;;;;;;;2076578;28;20168;-58
2022/06/15 01:34:25;;;;;;;5.22;4.55;;;;;;;;;;2076401;28;20274;-57
2022/06/15 01:35:42;;;;;;;6.32;4.57;;;;;;;;;;2077505;28;20173;-56
2022/06/15 01:37:02;;;;;;;5.05;4.25;;;;;;;;;;2077106;28;20247;-59
2022/06/15 01:38:19;;;;;;;5.72;4.05;;;;;;;;;;2072147;28;20249;-57
2022/06/15 01:39:25;;;;;;;6.15;4.72;;;;;;;;;;2084318;28;20324;-54
2022/06/15 01:40:33;;;;;;;7.85;4.78;;;;;;;;;;2082189;28;20234;-54
2022/06/15 01:41:35;;;;;;;6.82;4.45;;;;;;;;;;2074621;28;20157;-57
2022/06/15 01:42:38;;;;;;;9.02;4.68;;;;;;;;;;2075925;28;20220;-56
2022/06/15 01:43:43;;;;;;;6.95;5.05;;;;;;;;;;2075316;28;20173;-54
2022/06/15 01:44:46;;;;;;;8.80;5.47;;;;;;;;;;2074917;28;20178;-57
2022/06/15 01:45:48;;;;;;;5.45;4.95;;;;;;;;;;2075055;28;20712;-57
2022/06/15 01:46:50;;;;;;;6.57;4.82;;;;;;;;;;2074714;28;20192;-57
2022/06/15 01:47:52;;;;;;;6.43;4.80;;;;;;;;;;2074048;28;20653;-54
2022/06/15 01:48:53;;;;;;;5.20;4.65;;;;;;;;;;2074580;28;20231;-57
2022/06/15 01:49:54;;;;;;;5.43;4.45;;;;;;;;;;2067325;28;20732;-54
2022/06/15 01:50:57;;;;;;;4.93;4.53;;;;;;;;;;2075298;28;20204;-59
2022/06/15 01:51:58;;;;;;;7.43;6.05;;;;;;;;;;2075962;28;20259;-59
2022/06/15 01:53:14;;;;;;;4.85;4.43;;;;;;;;;;2074524;28;20177;-55
2022/06/15 01:54:18;;;;;;;6.82;4.50;;;;;;;;;;2073383;28;20180;-55
2022/06/15 01:55:25;;;;;;;5.80;4.63;;;;;;;;;;2066461;28;20236;-54
2022/06/15 01:56:29;;;;;;;7.95;5.07;;;;;;;;;;2066603;28;20182;-58
2022/06/15 01:57:32;;;;;;;7.35;4.80;;;;;;;;;;2066537;28;20287;-59
2022/06/15 01:58:34;;;;;;;5.80;4.75;;;;;;;;;;2073787;28;20665;-58
2022/06/15 01:59:34;;;;;;;5.40;4.90;;;;;;;;;;2074223;28;20177;-59
2022/06/15 02:00:35;;;;;;;7.80;4.88;;;;;;;;;;2065649;28;20236;-55
2022/06/15 02:01:45;;;;;;;5.15;4.72;;;;;;;;;;2070620;28;20173;-56
2022/06/15 02:03:04;;;;;;;5.60;5.03;;;;;;;;;;2081635;28;20274;-55
2022/06/15 02:04:05;;;;;;;6.90;6.00;;;;;;;;;;2070332;28;20310;-56
2022/06/15 02:05:11;;;;;;;6.00;5.50;;;;;;;;;;2066035;28;20185;-55
2022/06/15 02:06:15;;;;;;;6.15;5.55;;;;;;;;;;2081877;28;20548;-54
2022/06/15 02:07:16;;;;;;;7.45;4.75;;;;;;;;;;2081528;28;20612;-54
2022/06/15 02:08:16;;;;;;;9.13;5.78;;;;;;;;;;2073962;28;20180;-57
2022/06/15 02:09:24;;;;;;;6.22;5.63;;;;;;;;;;2073681;28;20188;-55
2022/06/15 02:10:30;;;;;;;5.90;5.40;;;;;;;;;;2073369;28;20212;-58
2022/06/15 02:11:36;;;;;;;7.85;5.90;;;;;;;;;;2073675;28;20689;-55
2022/06/15 02:12:42;;;;;;;6.30;5.72;;;;;;;;;;2058877;28;20190;-55
2022/06/15 02:13:47;;;;;;;8.55;6.25;;;;;;;;;;2073850;28;20173;-56
2022/06/15 02:14:54;;;;;;;6.07;5.55;;;;;;;;;;2065655;28;20180;-57
2022/06/15 02:15:58;;;;;;;8.07;5.55;;;;;;;;;;2066794;28;20666;-56
2022/06/15 02:17:02;;;;;;;5.75;5.15;;;;;;;;;;2066783;28;20174;-52
2022/06/15 02:18:05;;;;;;;5.68;5.18;;;;;;;;;;2066972;28;20186;-53
2022/06/15 02:19:09;;;;;;;6.90;5.25;;;;;;;;;;2066352;28;20260;-59
2022/06/15 02:20:13;;;;;;;6.53;5.45;;;;;;;;;;2073310;28;20196;-56
2022/06/15 02:21:16;;;;;;;6.47;5.88;;;;;;;;;;2065336;28;20170;-55
2022/06/15 02:22:19;;;;;;;6.72;5.00;;;;;;;;;;2057325;28;20170;-58
2022/06/15 02:23:20;;;;;;;7.68;5.78;;;;;;;;;;2065700;28;20174;-55
2022/06/15 02:24:21;;;;;;;5.63;5.13;;;;;;;;;;2072754;28;20178;-54
2022/06/15 02:25:24;;;;;;;9.50;5.45;;;;;;;;;;2067396;28;20201;-56
2022/06/15 02:26:28;;;;;;;6.43;5.60;;;;;;;;;;2065700;28;20193;-56
2022/06/15 02:27:30;;;;;;;8.40;5.82;;;;;;;;;;2065626;28;20577;-58
2022/06/15 02:28:34;;;;;;;6.03;5.50;;;;;;;;;;2065057;28;20221;-58
2022/06/15 02:29:37;;;;;;;7.13;6.38;;;;;;;;;;2065873;28;20185;-56
2022/06/15 02:30:37;;;;;;;7.70;5.70;;;;;;;;;;2073302;28;20677;-55
2022/06/15 02:31:40;;;;;;;5.75;5.22;;;;;;;;;;2065324;28;20192;-56
2022/06/15 02:32:42;;;;;;;6.60;5.95;;;;;;;;;;2065530;28;20228;-56
2022/06/15 02:33:53;;;;;;;7.05;6.30;;;;;;;;;;2073291;28;20181;-52
2022/06/15 02:34:54;;;;;;;7.20;6.05;;;;;;;;;;2072910;28;20176;-53
2022/06/15 02:35:56;;;;;;;6.95;5.55;;;;;;;;;;2065447;28;20178;-56
2022/06/15 02:36:57;;;;;;;7.38;5.80;;;;;;;;;;2073770;28;20180;-54
2022/06/15 02:37:58;;;;;;;7.25;5.93;;;;;;;;;;2073275;28;20177;-54
2022/06/15 02:39:02;;;;;;;8.20;6.22;;;;;;;;;;2074831;28;20207;-55
2022/06/15 02:40:05;;;;;;;6.65;5.93;;;;;;;;;;2067161;28;20253;-53
2022/06/15 02:41:10;;;;;;;8.80;5.68;;;;;;;;;;2066391;28;20182;-53
2022/06/15 02:42:22;;;;;;;7.18;5.38;;;;;;;;;;2066405;28;20317;-54
2022/06/15 02:43:28;;;;;;;8.18;5.60;;;;;;;;;;2074015;28;20641;-55
2022/06/15 02:44:30;;;;;;;6.85;6.00;;;;;;;;;;2073526;28;20161;-53
2022/06/15 02:45:34;;;;;;;6.32;5.72;;;;;;;;;;2074031;28;20161;-54
2022/06/15 02:46:37;;;;;;;6.70;5.90;;;;;;;;;;2057789;28;20303;-55
2022/06/15 02:47:41;;;;;;;7.35;6.15;;;;;;;;;;2065927;28;20609;-56
2022/06/15 02:48:41;;;;;;;6.25;5.75;;;;;;;;;;2073880;28;21976;-56
2022/06/15 02:49:41;;;;;;;6.57;5.65;;;;;;;;;;2074001;28;20266;-58
2022/06/15 02:50:50;;;;;;;6.28;5.68;;;;;;;;;;2066038;28;20193;-57
2022/06/15 02:52:11;;;;;;;7.38;5.47;;;;;;;;;;2059438;28;20198;-52
2022/06/15 02:53:13;;;;;;;9.30;5.95;;;;;;;;;;2060812;28;20642;-58
2022/06/15 02:54:26;;;;;;;6.65;5.90;;;;;;;;;;2057465;28;20212;-55
2022/06/15 02:55:32;;;;;;;5.90;5.25;;;;;;;;;;2063241;28;20165;-58
2022/06/15 02:56:33;;;;;;;7.80;5.65;;;;;;;;;;2073203;28;20648;-56
2022/06/15 02:58:03;;;;;;;6.30;5.57;;;;;;;;;;2073652;28;20235;-57
2022/06/15 02:59:09;;;;;;;7.22;5.30;;;;;;;;;;2066114;28;20189;-56
2022/06/15 03:00:15;;;;;;;8.23;5.68;;;;;;;;;;2065689;28;20573;-56
2022/06/15 03:01:18;;;;;;;6.05;5.47;;;;;;;;;;2066094;28;20182;-57
2022/06/15 03:02:21;;;;;;;9.52;6.55;;;;;;;;;;2065643;28;20247;-55
2022/06/15 03:03:25;;;;;;;8.43;5.50;;;;;;;;;;2065932;28;20724;-53
2022/06/15 03:04:33;;;;;;;8.85;5.80;;;;;;;;;;2065839;28;20173;-57
2022/06/15 03:05:33;;;;;;;6.72;6.03;;;;;;;;;;2073515;28;20177;-57
2022/06/15 03:06:35;;;;;;;6.00;5.40;;;;;;;;;;2073517;28;20602;-56
2022/06/15 03:07:45;;;;;;;7.18;5.85;;;;;;;;;;2067302;28;20257;-56
2022/06/15 03:08:48;;;;;;;7.57;5.40;;;;;;;;;;2065871;28;20204;-56
2022/06/15 03:09:58;;;;;;;6.22;5.55;;;;;;;;;;2067045;28;20166;-56
2022/06/15 03:10:59;;;;;;;8.73;5.72;;;;;;;;;;2058434;28;20186;-60
2022/06/15 03:12:00;;;;;;;6.53;5.93;;;;;;;;;;2063710;28;20222;-54
2022/06/15 03:13:07;;;;;;;10.57;5.95;;;;;;;;;;2073957;28;20181;-60
2022/06/15 03:14:08;;;;;;;8.60;5.90;;;;;;;;;;2064763;28;20279;-56
2022/06/15 03:15:10;;;;;;;7.38;6.20;;;;;;;;;;2073660;28;20216;-59
2022/06/15 03:16:10;;;;;;;8.35;6.03;;;;;;;;;;2073786;28;20272;-56
2022/06/15 03:17:14;;;;;;;8.43;5.85;;;;;;;;;;2073367;28;20177;-56
2022/06/15 03:18:34;;;;;;;9.43;5.97;;;;;;;;;;2068201;28;20204;-55
2022/06/15 03:19:40;;;;;;;8.70;6.28;;;;;;;;;;2066393;28;20162;-57
2022/06/15 03:20:41;;;;;;;7.38;5.95;;;;;;;;;;2073941;28;20681;-57
2022/06/15 03:21:42;;;;;;;7.20;5.78;;;;;;;;;;2074009;28;20223;-56
2022/06/15 03:22:42;;;;;;;6.03;5.40;;;;;;;;;;2066308;28;20547;-53
2022/06/15 03:23:54;;;;;;;5.82;5.22;;;;;;;;;;2066590;28;20653;-57
2022/06/15 03:24:54;;;;;;;9.13;5.85;;;;;;;;;;2065593;28;20256;-55
2022/06/15 03:25:58;;;;;;;7.93;6.00;;;;;;;;;;2073821;28;20165;-54
2022/06/15 03:26:59;;;;;;;6.07;5.28;;;;;;;;;;2074406;28;20201;-55
2022/06/15 03:28:00;;;;;;;7.38;5.50;;;;;;;;;;2073936;28;20200;-55
2022/06/15 03:29:03;;;;;;;11.30;5.28;;;;;;;;;;2074365;28;20204;-54
2022/06/15 03:30:07;;;;;;;7.63;5.88;;;;;;;;;;2065684;28;20189;-56
2022/06/15 03:31:15;;;;;;;7.07;5.40;;;;;;;;;;2067007;28;20170;-52
2022/06/15 03:32:16;;;;;;;7.43;6.13;;;;;;;;;;2065375;28;20161;-56
2022/06/15 03:33:23;;;;;;;10.95;5.93;;;;;;;;;;2066590;28;20245;-58
2022/06/15 03:34:24;;;;;;;7.93;5.70;;;;;;;;;;2064732;28;20166;-55
2022/06/15 03:35:34;;;;;;;10.30;5.38;;;;;;;;;;2065494;28;20165;-51
2022/06/15 03:36:36;;;;;;;6.35;5.75;;;;;;;;;;2066748;28;20685;-59
2022/06/15 03:37:40;;;;;;;6.05;5.55;;;;;;;;;;2065090;28;20195;-55
2022/06/15 03:39:07;;;;;;;7.97;5.88;;;;;;;;;;2068862;28;20743;-53
2022/06/15 03:40:11;;;;;;;6.38;5.78;;;;;;;;;;2073227;28;20168;-54
2022/06/15 03:41:17;;;;;;;8.18;5.88;;;;;;;;;;2065974;28;20219;-55
2022/06/15 03:42:19;;;;;;;7.95;6.13;;;;;;;;;;2065074;28;20165;-53
2022/06/15 03:43:21;;;;;;;7.43;5.50;;;;;;;;;;2067979;28;20186;-59
2022/06/15 03:44:23;;;;;;;6.47;5.72;;;;;;;;;;2057415;28;20644;-55
2022/06/15 03:45:23;;;;;;;7.13;6.47;;;;;;;;;;2065883;28;20178;-55
2022/06/15 03:46:24;;;;;;;9.25;5.65;;;;;;;;;;2066031;28;20177;-54
2022/06/15 03:47:27;;;;;;;7.70;5.72;;;;;;;;;;2073814;28;20173;-56
2022/06/15 03:48:28;;;;;;;7.13;5.85;;;;;;;;;;2057740;28;20217;-56
2022/06/15 03:49:28;;;;;;;7.35;5.82;;;;;;;;;;2066031;28;20192;-56
2022/06/15 03:50:31;;;;;;;6.82;5.03;;;;;;;;;;2074479;28;20204;-55
2022/06/15 03:51:34;;;;;;;5.70;5.20;;;;;;;;;;2074067;28;20171;-56
2022/06/15 03:52:36;;;;;;;7.43;5.78;;;;;;;;;;2065676;28;20304;-52
2022/06/15 03:53:37;;;;;;;7.80;5.97;;;;;;;;;;2065808;28;20177;-54
2022/06/15 03:54:37;;;;;;;7.95;5.45;;;;;;;;;;2073035;28;20174;-57
2022/06/15 03:55:40;;;;;;;5.88;5.07;;;;;;;;;;2065948;28;20332;-56
2022/06/15 03:56:46;;;;;;;10.60;6.05;;;;;;;;;;2073644;28;20184;-52
2022/06/15 03:57:57;;;;;;;7.10;5.72;;;;;;;;;;2067415;28;20622;-53
2022/06/15 03:58:58;;;;;;;6.90;5.53;;;;;;;;;;2073866;28;20197;-55
2022/06/15 03:59:58;;;;;;;8.43;5.95;;;;;;;;;;2073739;28;20196;-59
2022/06/15 04:01:21;;;;;;;6.57;5.57;;;;;;;;;;2068888;28;20215;-55
2022/06/15 04:02:22;;;;;;;7.60;6.13;;;;;;;;;;2074303;28;20168;-53
2022/06/15 04:03:22;;;;;;;9.30;7.05;;;;;;;;;;2073917;28;20232;-56
2022/06/15 04:04:28;;;;;;;9.00;7.35;;;;;;;;;;2065587;28;20249;-55
2022/06/15 04:05:32;;;;;;;8.05;7.05;;;;;;;;;;2065844;28;20188;-56
2022/06/15 04:06:35;;;;;;;8.10;7.40;;;;;;;;;;2074180;28;20232;-56
2022/06/15 04:08:54;;;;;;;9.70;7.82;;;;;;;;;;2074007;28;20200;-58
2022/06/15 04:10:10;;;;;;;10.05;7.95;;;;;;;;;;2073813;28;20900;-54
2022/06/15 04:11:58;;;;;;;11.45;8.88;;;;;;;;;;2069302;28;20177;-54
2022/06/15 04:12:32;;;;;;;9.75;8.00;;;;;;;;;;2074229;28;20586;-58
2022/06/15 04:13:33;;;;;;;9.07;8.18;;;;;;;;;;2074224;28;20216;-55
2022/06/15 04:14:35;;;;;;;8.77;7.95;;;;;;;;;;2073548;28;20192;-54
2022/06/15 04:15:45;;;;;;;9.75;8.75;;;;;;;;;;2075412;28;20177;-56
2022/06/15 04:16:53;;;;;;;10.65;8.07;;;;;;;;;;2067809;28;20547;-58
2022/06/15 04:17:54;;;;;;;9.15;8.25;;;;;;;;;;2067683;28;20201;-56
2022/06/15 04:19:04;;;;;;;12.50;8.52;;;;;;;;;;2075298;28;20284;-56
2022/06/15 04:21:29;;;;;;;9.30;8.40;;;;;;;;;;2069697;28;20177;-59
2022/06/15 04:22:30;;;;;;;9.85;8.68;;;;;;;;;;2066558;28;20166;-54
2022/06/15 04:23:30;;;;;;;8.55;7.75;;;;;;;;;;2074605;28;20173;-54
2022/06/15 04:24:31;;;;;;;10.25;7.80;;;;;;;;;;2065215;28;20188;-51
2022/06/15 04:25:35;;;;;;;10.10;7.97;;;;;;;;;;2073957;28;20168;-58
2022/06/15 04:26:37;;;;;;;10.90;7.68;;;;;;;;;;2073833;28;20188;-53
2022/06/15 04:27:41;;;;;;;10.73;7.82;;;;;;;;;;2065762;28;20193;-54
2022/06/15 04:28:44;;;;;;;10.68;8.45;;;;;;;;;;2072654;23;20229;-53
2022/06/15 04:29:52;;;;;;;10.00;7.15;;;;;;;;;;2066785;28;20178;-54
2022/06/15 04:30:52;;;;;;;9.05;6.68;;;;;;;;;;2074113;28;20220;-53
2022/06/15 04:31:57;;;;;;;11.02;7.30;;;;;;;;;;2074648;28;20251;-53
2022/06/15 04:33:01;;;;;;;9.02;6.60;;;;;;;;;;2066322;28;20647;-54
2022/06/15 04:34:09;;;;;;;7.25;6.55;;;;;;;;;;2066167;28;20181;-50
2022/06/15 04:35:10;;;;;;;9.38;6.55;;;;;;;;;;2075081;28;20176;-55
2022/06/15 04:36:13;;;;;;;9.40;6.28;;;;;;;;;;2075005;28;20172;-57
2022/06/15 04:37:15;;;;;;;10.18;6.47;;;;;;;;;;2066082;28;20177;-51
2022/06/15 04:38:21;;;;;;;8.13;6.50;;;;;;;;;;2066942;28;20224;-52
2022/06/15 04:39:32;;;;;;;9.93;6.00;;;;;;;;;;2066382;28;20299;-52
2022/06/15 04:40:33;;;;;;;11.02;6.00;;;;;;;;;;2074104;28;20196;-54
2022/06/15 04:41:36;;;;;;;6.65;6.00;;;;;;;;;;2066443;28;20690;-53
2022/06/15 04:42:36;;;;;;;6.65;5.93;;;;;;;;;;2073997;28;20177;-55
2022/06/15 04:43:37;;;;;;;7.95;6.00;;;;;;;;;;2073937;28;20649;-61
2022/06/15 04:44:43;;;;;;;7.70;6.40;;;;;;;;;;2065324;28;20193;-55
2022/06/15 04:45:44;;;;;;;6.78;5.72;;;;;;;;;;2073687;28;20252;-52
2022/06/15 04:46:51;;;;;;;8.40;5.53;;;;;;;;;;2061458;28;20693;-57
2022/06/15 04:47:54;;;;;;;7.43;6.00;;;;;;;;;;2066696;28;20681;-56
2022/06/15 04:48:57;;;;;;;11.27;5.63;;;;;;;;;;2066639;28;20251;-57
2022/06/15 04:50:06;;;;;;;9.82;6.03;;;;;;;;;;2066654;28;20165;-52
2022/06/15 04:51:11;;;;;;;7.57;5.88;;;;;;;;;;2066120;28;20177;-55
2022/06/15 04:52:15;;;;;;;7.22;5.90;;;;;;;;;;2058685;28;20178;-56
2022/06/15 04:53:17;;;;;;;7.13;5.47;;;;;;;;;;2065876;28;20165;-56
2022/06/15 04:54:23;;;;;;;7.72;6.13;;;;;;;;;;2074477;28;20173;-55
2022/06/15 04:55:27;;;;;;;5.93;5.40;;;;;;;;;;2065746;28;20181;-55
2022/06/15 04:56:31;;;;;;;8.73;5.68;;;;;;;;;;2067551;28;20257;-57
2022/06/15 04:57:38;;;;;;;8.10;5.47;;;;;;;;;;2074048;28;20173;-56
2022/06/15 04:58:43;;;;;;;7.95;5.65;;;;;;;;;;2074068;28;20192;-57
2022/06/15 04:59:43;;;;;;;9.00;5.57;;;;;;;;;;2066753;28;20182;-57
2022/06/15 05:00:50;;;;;;;7.97;5.38;;;;;;;;;;2074462;28;20246;-53
2022/06/15 05:01:52;;;;;;;6.28;5.28;;;;;;;;;;2063035;28;20171;-52
2022/06/15 05:02:54;;;;;;;6.28;5.60;;;;;;;;;;2075629;28;20564;-54
2022/06/15 05:03:57;;;;;;;5.90;5.38;;;;;;;;;;2074909;28;20641;-55
2022/06/15 05:04:59;;;;;;;5.60;5.07;;;;;;;;;;2066632;28;20178;-54
2022/06/15 05:06:07;;;;;;;7.60;5.40;;;;;;;;;;2067340;28;20221;-57
2022/06/15 05:07:08;;;;;;;8.38;5.63;;;;;;;;;;2075432;28;20157;-55
2022/06/15 05:08:12;;;;;;;6.35;4.72;;;;;;;;;;2074469;28;20259;-54
2022/06/15 05:09:16;;;;;;;6.03;5.47;;;;;;;;;;2067219;28;20198;-52
2022/06/15 05:10:22;;;;;;;6.00;5.45;;;;;;;;;;2060761;28;20178;-51
2022/06/15 05:11:28;;;;;;;7.25;5.10;;;;;;;;;;2067545;28;20705;-54
2022/06/15 05:12:29;;;;;;;7.13;5.30;;;;;;;;;;2066537;28;20185;-53
2022/06/15 05:13:30;;;;;;;6.97;5.80;;;;;;;;;;2074987;28;20173;-53
2022/06/15 05:14:33;;;;;;;6.72;5.15;;;;;;;;;;2073656;28;20898;-53
2022/06/15 05:15:38;;;;;;;5.22;4.80;;;;;;;;;;2074173;28;20709;-50
2022/06/15 05:16:41;;;;;;;6.90;5.53;;;;;;;;;;2066736;28;20271;-53
2022/06/15 05:17:47;;;;;;;5.18;4.63;;;;;;;;;;2066404;28;20169;-53
2022/06/15 05:18:49;;;;;;;7.60;4.60;;;;;;;;;;2066606;28;20205;-55
2022/06/15 05:19:57;;;;;;;5.83;5.33;;;;;;;;;;2074325;28;20165;-53
2022/06/15 05:21:02;;;;;;;8.77;4.82;;;;;;;;;;2066666;28;20844;-52
2022/06/15 05:22:02;;;;;;;7.63;5.25;;;;;;;;;;2066376;28;20182;-51
2022/06/15 05:23:05;;;;;;;6.07;5.47;;;;;;;;;;2065859;28;20192;-56
2022/06/15 05:24:24;;;;;;;9.13;6.07;;;;;;;;;;2065692;28;20158;-54
2022/06/15 05:25:27;;;;;;;7.13;5.93;;;;;;;;;;2066219;28;20173;-55
2022/06/15 05:26:29;;;;;;;8.90;7.40;;;;;;;;;;2067309;28;20181;-52
2022/06/15 05:27:30;;;;;;;6.72;6.00;;;;;;;;;;2066846;28;20178;-53
2022/06/15 05:28:30;;;;;;;9.18;5.43;;;;;;;;;;2066157;28;20181;-53
2022/06/15 05:29:36;;;;;;;7.78;5.40;;;;;;;;;;2074259;28;20797;-52
2022/06/15 05:30:43;;;;;;;6.65;4.90;;;;;;;;;;2067253;28;20252;-55
2022/06/15 05:31:46;;;;;;;9.93;4.32;;;;;;;;;;2065756;28;20588;-55
2022/06/15 05:32:48;;;;;;;11.60;6.25;;;;;;;;;;2065802;28;20174;-51
2022/06/15 05:33:55;;;;;;;9.90;6.13;;;;;;;;;;2078614;28;20599;-55
2022/06/15 05:34:56;;;;;;;11.73;6.80;;;;;;;;;;2075449;28;20566;-54
2022/06/15 05:36:06;;;;;;;6.70;4.45;;;;;;;;;;2075070;28;20216;-55
2022/06/15 05:37:07;;;;;;;13.70;9.23;;;;;;;;;;2067765;28;20806;-54
2022/06/15 05:38:10;;;;;;;8.48;5.90;;;;;;;;;;2076652;28;20751;-53
2022/06/15 05:39:13;;;;;;;10.95;7.68;;;;;;;;;;2075604;28;20199;-52
2022/06/15 05:40:15;;;;;;;9.52;5.63;;;;;;;;;;2074831;28;20185;-52
2022/06/15 05:41:17;;;;;;;10.85;5.30;;;;;;;;;;2065450;28;20167;-50
2022/06/15 05:42:18;;;;;;;8.10;6.18;;;;;;;;;;2066434;28;20207;-57
2022/06/15 05:43:23;;;;;;;8.68;5.25;;;;;;;;;;2066871;28;20213;-53
2022/06/15 05:45:45;;;;;;;10.98;5.22;;;;;;;;;;2076500;28;20219;-50
2022/06/15 05:46:45;;;;;;;5.40;4.90;;;;;;;;;;2067321;28;20243;-55
2022/06/15 05:48:00;;;;;;;7.65;5.13;;;;;;;;;;2082514;28;20711;-57
2022/06/15 05:49:11;;;;;;;7.15;5.22;;;;;;;;;;2073937;28;20633;-54
2022/06/15 05:50:13;;;;;;;11.10;8.25;;;;;;;;;;2062016;28;20221;-56
2022/06/15 05:51:41;;;;;;;9.57;5.68;;;;;;;;;;2076675;28;20184;-54
2022/06/15 05:52:42;;;;;;;7.75;5.45;;;;;;;;;;2074079;28;20255;-58
2022/06/15 05:53:44;;;;;;;5.50;4.95;;;;;;;;;;2074069;28;20180;-57
2022/06/15 05:54:44;;;;;;;6.18;4.35;;;;;;;;;;2081060;28;20164;-53
2022/06/15 05:55:44;;;;;;;11.43;5.85;;;;;;;;;;2083059;28;20217;-51
2022/06/15 05:56:45;;;;;;;12.25;7.72;;;;;;;;;;2082907;28;20172;-53
2022/06/15 05:57:46;;;;;;;8.95;5.43;;;;;;;;;;2082626;28;20294;-53
2022/06/15 05:58:47;;;;;;;7.38;5.25;;;;;;;;;;2082383;28;20766;-51
2022/06/15 05:59:48;;;;;;;6.85;6.18;;;;;;;;;;2083050;28;20192;-55
2022/06/15 06:00:48;;;;;;;7.45;5.72;;;;;;;;;;2082421;28;20208;-57
2022/06/15 06:01:49;;;;;;;6.53;5.93;;;;;;;;;;2082902;28;20172;-53
2022/06/15 06:02:49;;;;;;;7.07;4.72;;;;;;;;;;2081262;28;20762;-59
2022/06/15 06:03:49;;;;;;;7.60;4.75;;;;;;;;;;2072458;28;20192;-54
2022/06/15 06:04:50;;;;;;;9.27;5.30;;;;;;;;;;2070793;28;20177;-62
2022/06/15 06:05:50;;;;;;;6.25;4.82;;;;;;;;;;2073444;28;20184;-57
2022/06/15 06:06:51;;;;;;;7.85;4.60;;;;;;;;;;2074936;28;20173;-65
2022/06/15 06:07:51;;;;;;;7.45;5.38;;;;;;;;;;2074197;28;20181;-54
2022/06/15 06:08:52;;;;;;;6.45;4.95;;;;;;;;;;2074568;28;20274;-56
2022/06/15 06:09:52;;;;;;;5.70;5.18;;;;;;;;;;2075093;28;20173;-57
2022/06/15 06:10:52;;;;;;;5.93;4.68;;;;;;;;;;2075171;28;20631;-55
2022/06/15 06:11:53;;;;;;;7.68;4.90;;;;;;;;;;2074304;28;20176;-56
2022/06/15 06:12:53;;;;;;;6.72;5.10;;;;;;;;;;2074933;28;20204;-56
2022/06/15 06:13:53;;;;;;;7.65;5.97;;;;;;;;;;2074215;28;20169;-53
2022/06/15 06:14:54;;;;;;;6.88;5.70;;;;;;;;;;2074330;28;20697;-62
2022/06/15 06:15:56;;;;;;;6.38;5.70;;;;;;;;;;2074545;28;20641;-55
2022/06/15 06:16:56;;;;;;;11.68;6.97;;;;;;;;;;2074468;28;20169;-56
2022/06/15 06:17:56;;;;;;;11.43;5.07;;;;;;;;;;2074475;28;20273;-54
2022/06/15 06:18:57;;;;;;;7.47;5.72;;;;;;;;;;2074656;28;20276;-51
2022/06/15 06:19:57;;;;;;;8.02;6.78;;;;;;;;;;2074533;28;20180;-51
2022/06/15 06:20:58;;;;;;;5.90;5.05;;;;;;;;;;2074112;28;20689;-53
2022/06/15 06:21:58;;;;;;;9.60;4.85;;;;;;;;;;2074175;28;20173;-56
2022/06/15 06:22:59;;;;;;;7.13;4.80;;;;;;;;;;2073941;28;20181;-53
2022/06/15 06:23:59;;;;;;;7.43;4.95;;;;;;;;;;2073556;28;20219;-54
2022/06/15 06:24:59;;;;;;;6.95;4.25;;;;;;;;;;2073801;28;20206;-54
2022/06/15 06:26:00;;;;;;;6.85;4.20;;;;;;;;;;2074419;28;20260;-50
2022/06/15 06:27:02;;;;;;;7.18;4.82;;;;;;;;;;2074536;28;20177;-51